Time;durP1;ratioP1;P1;durP2;ratioP2;P2;SDS_P1;SDS_P2;PMS_P1;PMS_P2;Temp;Humidity;BMP_temperature;BMP_pressure;BME280_temperature;BME280_humidity;BME280_pressure;Samples;Min_cycle;Max_cycle;Signal;HPM_P1;HPM_P2
2021/10/21 00:01:12;;;;;;;3.00;2.67;;;19.90;99.90;;;19.86;54.01;98788.72;4985400;27;97268;-50
2021/10/21 00:03:38;;;;;;;3.67;2.70;;;19.90;99.90;;;19.83;55.01;98776.53;4987848;27;99831;-49
2021/10/21 00:06:04;;;;;;;3.33;2.70;;;19.90;99.90;;;19.81;55.07;98773.13;5008390;27;97321;-46
2021/10/21 00:08:30;;;;;;;4.00;2.90;;;19.80;99.90;;;19.78;54.64;98765.44;5005693;27;100373;-51
2021/10/21 00:10:56;;;;;;;3.43;2.83;;;19.80;99.90;;;19.78;54.22;98760.09;5002030;27;99049;-51
2021/10/21 00:13:24;;;;;;;3.67;2.90;;;19.80;99.90;;;19.75;55.28;98760.41;4994082;27;100398;-51
2021/10/21 00:15:50;;;;;;;3.53;2.87;;;19.80;99.90;;;19.75;54.96;98755.06;4983161;27;98134;-49
2021/10/21 00:18:16;;;;;;;3.43;2.60;;;19.80;99.90;;;19.71;56.44;98747.53;5001776;27;98557;-51
2021/10/21 00:20:42;;;;;;;4.57;2.93;;;19.70;99.90;;;19.65;55.00;98754.31;5004469;27;98684;-49
2021/10/21 00:23:08;;;;;;;4.67;3.17;;;19.60;99.90;;;19.57;56.99;98751.63;5005980;27;97343;-49
2021/10/21 00:25:35;;;;;;;4.67;2.90;;;19.60;99.90;;;19.51;56.44;98746.84;4989743;27;98027;-50
2021/10/21 00:28:00;;;;;;;3.87;2.97;;;19.50;99.90;;;19.43;57.49;98770.88;5003864;27;101523;-48
2021/10/21 00:30:27;;;;;;;7.30;2.77;;;19.40;99.90;;;19.36;58.85;98780.50;5005177;27;99233;-50
2021/10/21 00:32:53;;;;;;;7.10;3.00;;;19.30;99.90;;;19.29;60.38;98783.81;5006949;27;97925;-48
2021/10/21 00:35:19;;;;;;;4.47;3.10;;;19.20;99.90;;;19.19;58.22;98769.69;5016468;27;97429;-50
2021/10/21 00:37:44;;;;;;;4.83;3.20;;;19.10;99.90;;;19.14;58.48;98765.81;5025420;27;97743;-46
2021/10/21 00:40:11;;;;;;;7.30;3.23;;;19.00;99.90;;;18.97;63.34;98759.50;5033756;27;98652;-53
2021/10/21 00:42:38;;;;;;;5.10;3.30;;;18.90;99.90;;;18.97;63.31;98744.31;5008019;27;97686;-46
2021/10/21 00:45:05;;;;;;;4.73;3.03;;;18.80;99.90;;;18.92;63.58;98751.06;5017146;27;98348;-48
2021/10/21 00:47:31;;;;;;;5.73;3.10;;;18.80;99.90;;;18.94;62.61;98733.06;5028554;27;98512;-50
2021/10/21 00:49:56;;;;;;;5.60;3.07;;;18.80;99.90;;;18.88;62.18;98728.34;5011668;27;99264;-49
2021/10/21 00:52:24;;;;;;;4.87;2.80;;;18.70;99.90;;;18.89;61.60;98730.03;5026660;27;100836;-47
2021/10/21 00:54:52;;;;;;;4.07;2.63;;;18.70;99.90;;;18.78;64.41;98717.72;5009834;27;100089;-50
2021/10/21 00:57:18;;;;;;;3.50;2.53;;;18.70;99.90;;;18.67;63.82;98726.84;5020616;27;98806;-51
2021/10/21 00:59:45;;;;;;;5.17;2.60;;;18.50;99.90;;;18.70;63.71;98731.88;5009348;27;98599;-47
2021/10/21 01:02:12;;;;;;;3.70;2.40;;;18.60;99.90;;;18.62;62.09;98714.88;5034679;27;96962;-48
2021/10/21 01:04:39;;;;;;;2.63;2.40;;;18.50;99.90;;;18.63;62.83;98688.06;5008324;27;96998;-50
2021/10/21 01:07:06;;;;;;;2.90;2.10;;;18.50;99.90;;;18.65;62.79;98648.69;5034613;27;101340;-50
2021/10/21 01:09:34;;;;;;;3.87;2.40;;;18.50;99.90;;;18.62;62.20;98632.97;4994866;27;96901;-49
2021/10/21 01:12:00;;;;;;;5.27;2.50;;;18.50;99.90;;;18.63;65.40;98656.03;4993779;27;96894;-48
2021/10/21 01:14:26;;;;;;;2.93;2.50;;;18.50;99.90;;;18.71;61.31;98652.59;5009386;27;97543;-48
2021/10/21 01:16:52;;;;;;;3.50;2.40;;;18.50;99.90;;;18.72;60.00;98659.63;5000575;27;97257;-49
2021/10/21 01:19:24;;;;;;;6.33;2.37;;;18.50;99.90;;;18.71;64.29;98656.09;5000934;27;99374;-48
2021/10/21 01:21:53;;;;;;;4.90;2.10;;;18.50;99.90;;;18.65;61.29;98659.38;5001001;27;97315;-49
2021/10/21 01:24:19;;;;;;;4.37;1.50;;;18.50;99.90;;;18.58;62.44;98652.13;5011643;28;97403;-50
2021/10/21 01:26:47;;;;;;;2.27;2.07;;;18.50;99.90;;;18.63;60.03;98656.03;5005813;27;100292;-46
2021/10/21 01:29:15;;;;;;;3.27;2.17;;;18.50;99.90;;;18.54;59.06;98667.63;4993898;27;98183;-51
2021/10/21 01:31:41;;;;;;;2.20;1.20;;;18.50;99.90;;;18.53;58.36;98668.59;5003031;27;96946;-52
2021/10/21 01:34:08;;;;;;;3.27;1.20;;;18.50;99.90;;;18.46;57.26;98678.19;5011269;27;96906;-49
2021/10/21 01:36:36;;;;;;;2.10;1.20;;;18.40;99.90;;;18.21;54.79;98666.44;5012652;27;98020;-48
2021/10/21 01:39:08;;;;;;;4.47;0.97;;;18.20;99.90;;;18.09;56.88;98671.16;5017451;27;101911;-49
2021/10/21 01:41:34;;;;;;;5.30;1.17;;;18.10;99.90;;;18.06;53.27;98682.13;5006088;27;97155;-48
2021/10/21 01:44:00;;;;;;;2.43;0.83;;;18.10;99.90;;;17.92;56.14;98690.63;4999060;27;98862;-53
2021/10/21 01:46:27;;;;;;;2.20;1.07;;;18.00;99.90;;;17.78;55.06;98707.09;5000652;27;97018;-50
2021/10/21 01:48:53;;;;;;;3.37;1.03;;;17.90;99.90;;;17.76;56.11;98709.09;5006254;27;97391;-51
2021/10/21 01:51:19;;;;;;;1.70;0.90;;;17.90;99.90;;;17.75;51.31;98718.06;5011628;27;96973;-49
2021/10/21 01:53:45;;;;;;;2.50;0.97;;;17.80;99.90;;;17.66;51.07;98708.28;5002544;27;96944;-50
2021/10/21 01:56:11;;;;;;;4.60;0.90;;;17.70;99.90;;;17.75;50.96;98696.75;4999003;27;97071;-50
2021/10/21 01:58:37;;;;;;;3.90;0.80;;;17.70;99.90;;;17.72;49.86;98697.03;5003147;27;118129;-56
2021/10/21 02:01:03;;;;;;;2.53;0.80;;;17.70;99.90;;;17.79;55.95;98708.78;5002704;27;97235;-48
2021/10/21 02:03:29;;;;;;;2.57;1.00;;;17.70;99.90;;;17.75;54.22;98696.75;5002576;28;97226;-51
2021/10/21 02:05:55;;;;;;;3.30;0.73;;;17.80;99.90;;;17.89;55.50;98679.41;5012717;27;98269;-48
2021/10/21 02:08:21;;;;;;;2.63;0.97;;;17.90;99.90;;;17.93;54.75;98673.63;5012124;27;97172;-51
2021/10/21 02:10:47;;;;;;;4.20;1.17;;;17.90;99.90;;;17.88;51.53;98686.56;5005512;27;102286;-46
2021/10/21 02:13:13;;;;;;;4.17;1.00;;;17.90;99.90;;;17.94;52.11;98685.13;5012867;27;97261;-50
2021/10/21 02:15:39;;;;;;;1.90;0.80;;;17.90;99.90;;;17.89;49.18;98696.25;5009156;27;103286;-47
2021/10/21 02:18:05;;;;;;;1.33;1.00;;;17.90;99.60;;;17.84;52.15;98674.53;5030884;27;97691;-48
2021/10/21 02:20:32;;;;;;;4.13;1.10;;;17.80;99.90;;;17.85;48.38;98673.56;5028770;27;97579;-48
2021/10/21 02:22:58;;;;;;;3.80;0.93;;;17.90;99.10;;;17.89;55.10;98666.91;5010625;27;102800;-50
2021/10/21 02:25:24;;;;;;;4.80;1.00;;;17.80;99.90;;;17.97;55.04;98658.19;5014934;27;97753;-51
2021/10/21 02:27:51;;;;;;;1.53;0.77;;;17.90;99.90;;;17.96;51.75;98662.69;5009933;27;99774;-51
2021/10/21 02:30:18;;;;;;;2.47;0.87;;;17.90;99.90;;;18.03;50.88;98666.41;5031011;27;97278;-49
2021/10/21 02:32:44;;;;;;;3.97;0.90;;;18.00;99.90;;;17.91;48.98;98664.94;5023976;27;97536;-48
2021/10/21 02:35:11;;;;;;;4.30;1.10;;;17.90;99.40;;;17.90;52.65;98681.94;5014348;27;97951;-46
2021/10/21 02:37:38;;;;;;;2.73;0.93;;;17.80;99.90;;;17.85;52.94;98660.22;5008504;27;97704;-49
2021/10/21 02:40:07;;;;;;;4.90;1.10;;;17.70;99.90;;;17.67;49.17;98651.31;5011862;27;96992;-52
2021/10/21 02:42:33;;;;;;;3.07;0.93;;;17.60;99.40;;;17.87;54.80;98646.72;5015322;27;98218;-52
2021/10/21 02:44:59;;;;;;;3.80;1.00;;;17.70;99.90;;;17.88;53.90;98653.75;5004869;27;98398;-46
2021/10/21 02:47:25;;;;;;;4.47;1.00;;;17.80;99.90;;;17.79;49.75;98642.13;5010114;27;100168;-50
2021/10/21 02:49:51;;;;;;;2.17;0.67;;;17.70;99.90;;;17.89;50.68;98656.25;5009028;27;99863;-49
2021/10/21 02:52:17;;;;;;;2.00;0.87;;;17.70;99.90;;;17.90;55.89;98652.59;5013682;27;99462;-48
2021/10/21 02:54:42;;;;;;;3.13;0.80;;;17.70;99.90;;;17.86;49.65;98647.72;5006744;27;97806;-48
2021/10/21 02:57:08;;;;;;;5.00;0.70;;;17.80;99.60;;;17.95;53.24;98650.34;5013260;27;98685;-51
2021/10/21 02:59:34;;;;;;;3.23;0.93;;;17.80;99.90;;;17.81;48.65;98648.19;5014294;27;107697;-46
2021/10/21 03:02:01;;;;;;;4.63;1.20;;;17.70;99.10;;;17.82;53.07;98649.84;5013210;27;97317;-50
2021/10/21 03:04:27;;;;;;;3.83;1.03;;;17.70;99.90;;;17.76;52.24;98634.44;5032070;27;99761;-50
2021/10/21 03:06:53;;;;;;;4.13;1.10;;;17.60;99.90;;;17.69;48.25;98652.03;5012541;27;98157;-48
2021/10/21 03:09:19;;;;;;;3.63;0.80;;;17.60;99.00;;;17.69;52.77;98633.38;5029009;27;97082;-48
2021/10/21 03:11:44;;;;;;;4.77;0.77;;;17.50;99.90;;;17.77;53.34;98636.09;5013560;27;97607;-49
2021/10/21 03:14:10;;;;;;;3.33;1.13;;;17.60;99.90;;;17.74;55.29;98647.06;5009316;27;101297;-49
2021/10/21 03:16:36;;;;;;;3.20;0.93;;;17.60;99.90;;;17.73;51.20;98634.75;5010378;27;101575;-53
2021/10/21 03:19:04;;;;;;;3.37;1.23;;;17.60;99.90;;;17.87;54.26;98631.56;5016702;27;99295;-49
2021/10/21 03:21:30;;;;;;;2.67;1.03;;;17.70;99.90;;;17.99;55.48;98627.72;5030645;27;97032;-51
2021/10/21 03:23:56;;;;;;;4.73;1.20;;;17.90;99.90;;;17.86;52.96;98624.56;5026956;27;100691;-48
2021/10/21 03:26:24;;;;;;;2.00;0.70;;;17.80;99.90;;;17.75;48.65;98635.41;5016438;27;97385;-52
2021/10/21 03:28:50;;;;;;;3.87;0.87;;;17.70;99.40;;;17.58;51.78;98625.53;5025247;27;98631;-52
2021/10/21 03:31:16;;;;;;;1.17;0.63;;;17.50;99.90;;;17.71;56.07;98626.06;5006737;27;102800;-49
2021/10/21 03:33:42;;;;;;;3.10;0.90;;;17.50;99.90;;;17.71;49.46;98626.88;5011136;27;100555;-50
2021/10/21 03:36:08;;;;;;;2.80;0.77;;;17.60;99.70;;;17.65;48.51;98619.47;5033619;27;97264;-51
2021/10/21 03:38:34;;;;;;;3.90;0.60;;;17.50;99.30;;;17.65;48.48;98610.59;5030080;27;97486;-49
2021/10/21 03:41:01;;;;;;;2.43;0.80;;;17.50;98.90;;;17.62;48.96;98616.25;5031369;27;98537;-46
2021/10/21 03:43:27;;;;;;;3.37;0.80;;;17.50;99.80;;;17.73;50.74;98618.75;5013784;27;98613;-49
2021/10/21 03:45:53;;;;;;;4.70;0.83;;;17.60;99.90;;;17.74;49.19;98626.59;5010785;27;98463;-50
2021/10/21 03:48:19;;;;;;;2.00;0.97;;;17.60;99.80;;;17.63;51.68;98623.25;5014855;27;97194;-48
2021/10/21 03:50:45;;;;;;;3.50;0.80;;;17.50;99.90;;;17.80;55.12;98610.00;5012633;27;98264;-48
2021/10/21 03:53:13;;;;;;;3.67;0.90;;;17.70;99.90;;;17.88;49.75;98630.56;5014850;27;99631;-49
2021/10/21 03:55:42;;;;;;;3.53;0.77;;;17.80;99.90;;;17.96;49.91;98625.34;5025101;27;97036;-46
2021/10/21 03:58:09;;;;;;;3.90;0.70;;;17.80;99.70;;;17.93;53.40;98620.28;5007447;27;97330;-49
2021/10/21 04:00:35;;;;;;;3.00;0.97;;;17.80;99.90;;;17.87;49.65;98623.56;5003463;27;96976;-50
2021/10/21 04:03:01;;;;;;;3.73;0.57;;;17.70;99.70;;;17.95;54.52;98613.00;5005681;27;101661;-47
2021/10/21 04:05:27;;;;;;;2.40;0.77;;;17.80;99.90;;;17.83;50.26;98619.53;4991869;28;99992;-49
2021/10/21 04:07:53;;;;;;;3.47;0.53;;;17.70;99.80;;;17.74;52.38;98605.25;5005095;27;97305;-51
2021/10/21 04:10:19;;;;;;;3.67;0.93;;;17.60;99.90;;;17.78;50.35;98611.13;5007025;27;96979;-49
2021/10/21 04:12:46;;;;;;;4.13;0.70;;;17.60;99.90;;;17.70;54.03;98597.72;4997637;27;98362;-49
2021/10/21 04:15:11;;;;;;;2.30;0.83;;;17.50;99.90;;;17.54;52.88;98598.34;5014594;27;97476;-49
2021/10/21 04:17:38;;;;;;;3.07;0.57;;;17.50;99.90;;;17.78;54.81;98589.78;5026259;27;97533;-49
2021/10/21 04:20:05;;;;;;;8.03;0.80;;;17.60;99.90;;;17.58;49.92;98594.38;5012133;27;96841;-49
2021/10/21 04:22:31;;;;;;;3.53;0.83;;;17.50;99.90;;;17.53;52.44;98584.19;5014431;27;98568;-48
2021/10/21 04:24:57;;;;;;;5.43;0.80;;;17.40;99.90;;;17.55;51.87;98595.53;5028956;27;97222;-47
2021/10/21 04:27:23;;;;;;;2.47;0.50;;;17.40;99.90;;;17.52;51.18;98592.31;5030911;27;97193;-51
2021/10/21 04:29:49;;;;;;;1.43;0.50;;;17.40;99.90;;;17.53;53.09;98592.16;5013096;27;97260;-50
2021/10/21 04:32:16;;;;;;;2.50;0.73;;;17.40;99.90;;;17.51;53.22;98615.47;5014254;27;100050;-51
2021/10/21 04:34:42;;;;;;;1.87;0.60;;;17.30;99.90;;;17.47;51.61;98594.56;5008019;27;98732;-51
2021/10/21 04:37:07;;;;;;;2.10;0.57;;;17.30;99.90;;;17.37;51.18;98597.31;5021104;27;97303;-47
2021/10/21 04:39:33;;;;;;;3.10;0.60;;;17.20;99.90;;;17.41;52.77;98590.69;5029151;27;96848;-50
2021/10/21 04:41:59;;;;;;;1.70;0.50;;;17.30;99.90;;;17.60;54.45;98608.38;5010951;27;97075;-49
2021/10/21 04:44:25;;;;;;;2.70;1.10;;;17.40;99.90;;;17.60;52.80;98612.88;5014521;27;97519;-51
2021/10/21 04:46:51;;;;;;;3.80;0.60;;;17.50;99.90;;;17.61;52.71;98625.22;5028954;27;97507;-46
2021/10/21 04:49:17;;;;;;;3.10;0.50;;;17.50;99.90;;;17.57;52.65;98614.03;5028438;27;97127;-50
2021/10/21 04:51:43;;;;;;;1.17;0.40;;;17.40;99.90;;;17.54;54.00;98607.16;5009635;27;100268;-52
2021/10/21 04:54:09;;;;;;;2.27;0.60;;;17.40;99.90;;;17.54;53.97;98620.50;5015208;27;98427;-50
2021/10/21 04:56:35;;;;;;;2.27;0.70;;;17.40;99.90;;;17.42;50.76;98611.00;5030531;27;101840;-48
2021/10/21 04:59:00;;;;;;;2.10;0.50;;;17.40;99.90;;;17.60;52.41;98623.53;5010119;27;98744;-47
2021/10/21 05:01:26;;;;;;;0.90;0.40;;;17.50;99.90;;;17.50;51.05;98629.78;5013572;27;99379;-48
2021/10/21 05:03:52;;;;;;;2.13;0.50;;;17.50;99.90;;;17.51;51.81;98646.63;5029661;27;98258;-51
2021/10/21 05:06:18;;;;;;;4.23;0.30;;;17.40;99.90;;;17.33;51.00;98648.34;5013917;27;98089;-50
2021/10/21 05:08:44;;;;;;;4.43;0.40;;;17.20;99.90;;;17.33;53.19;98653.66;5015187;27;97033;-52
2021/10/21 05:11:10;;;;;;;2.07;0.57;;;17.20;99.90;;;17.38;54.99;98640.78;5031319;27;110024;-54
2021/10/21 05:13:36;;;;;;;2.80;0.43;;;17.30;99.90;;;17.35;55.06;98647.22;5029001;27;97142;-53
2021/10/21 05:16:01;;;;;;;2.00;0.23;;;17.30;99.90;;;17.23;51.32;98637.75;5031722;27;99343;-48
2021/10/21 05:18:27;;;;;;;1.83;0.27;;;17.30;99.90;;;17.24;54.80;98640.25;5015120;27;97762;-53
2021/10/21 05:20:53;;;;;;;2.33;0.23;;;17.20;99.90;;;17.07;51.64;98653.47;5009772;27;121080;-47
2021/10/21 05:23:19;;;;;;;0.53;0.10;;;17.00;99.90;;;17.02;54.93;98637.09;5014382;27;97874;-46
2021/10/21 05:25:48;;;;;;;1.63;0.27;;;16.90;99.90;;;17.24;54.11;98645.59;5009091;27;96910;-47
2021/10/21 05:28:14;;;;;;;2.40;0.43;;;17.10;99.90;;;17.09;54.87;98662.19;5011239;27;96860;-49
2021/10/21 05:30:40;;;;;;;1.13;0.30;;;17.10;99.90;;;17.14;55.57;98655.41;5028411;27;117620;-47
2021/10/21 05:33:06;;;;;;;1.70;0.30;;;17.10;99.90;;;17.08;54.65;98657.84;5011736;27;99083;-47
2021/10/21 05:35:32;;;;;;;1.27;0.20;;;17.00;99.90;;;17.13;54.47;98674.22;5017003;27;102778;-51
2021/10/21 05:37:58;;;;;;;3.50;0.33;;;17.10;99.90;;;17.00;54.17;98671.84;5026334;27;96954;-47
2021/10/21 05:40:25;;;;;;;1.43;0.20;;;17.00;99.90;;;16.97;53.21;98673.97;5016798;27;98476;-50
2021/10/21 05:42:51;;;;;;;1.10;0.17;;;16.90;99.90;;;16.99;55.85;98682.66;5007816;27;96880;-50
2021/10/21 05:45:17;;;;;;;0.63;0.17;;;16.90;99.90;;;16.89;55.66;98683.50;5012657;27;98184;-45
2021/10/21 05:47:43;;;;;;;0.50;0.10;;;16.90;99.90;;;16.95;56.31;98688.28;5013931;27;97388;-49
2021/10/21 05:50:10;;;;;;;1.60;0.10;;;16.90;99.90;;;17.02;55.06;98695.69;5030058;27;97759;-48
2021/10/21 05:52:37;;;;;;;1.17;0.10;;;17.00;99.90;;;16.88;54.38;98697.78;5004373;27;97847;-52
2021/10/21 05:55:05;;;;;;;0.70;0.20;;;16.90;99.90;;;16.71;56.23;98719.81;5012522;27;97058;-49
2021/10/21 05:57:31;;;;;;;0.70;0.20;;;16.70;99.90;;;16.57;56.29;98744.13;5030957;27;97036;-50
2021/10/21 05:59:57;;;;;;;0.67;0.10;;;16.60;99.90;;;16.56;57.60;98714.03;5008165;27;101125;-50
2021/10/21 06:02:23;;;;;;;0.27;0.10;;;16.50;99.90;;;16.35;57.32;98732.78;5011248;27;107526;-50
2021/10/21 06:04:49;;;;;;;3.13;0.27;;;16.40;99.90;;;16.28;58.34;98731.63;5028164;27;97219;-49
2021/10/21 06:07:15;;;;;;;1.87;0.40;;;16.40;99.90;;;16.15;58.48;98770.09;5027184;27;97269;-49
2021/10/21 06:09:42;;;;;;;4.50;1.00;;;16.20;99.90;;;15.82;58.29;98813.78;5011517;27;99656;-46
2021/10/21 06:12:08;;;;;;;3.60;0.50;;;16.00;99.90;;;15.82;58.61;98788.03;4997782;27;100245;-49
2021/10/21 06:14:35;;;;;;;1.50;0.60;;;16.00;99.90;;;15.84;59.87;98787.91;5026494;27;97302;-49
2021/10/21 06:17:01;;;;;;;4.33;0.57;;;16.00;99.90;;;15.53;59.26;98774.56;5021495;27;99357;-48
2021/10/21 06:19:28;;;;;;;5.63;0.60;;;15.80;99.90;;;15.60;60.22;98798.81;5015574;27;98490;-49
2021/10/21 06:22:08;;;;;;;3.47;0.70;;;15.80;99.90;;;14.97;60.81;98827.13;5027582;27;98403;-48
2021/10/21 06:24:34;;;;;;;6.00;0.83;;;15.30;99.90;;;14.66;61.33;98860.63;5011793;27;96957;-49
2021/10/21 06:27:00;;;;;;;4.23;0.83;;;15.00;99.90;;;14.63;61.84;98859.09;5006110;27;97011;-46
2021/10/21 06:29:26;;;;;;;2.77;0.63;;;15.00;99.90;;;14.35;62.05;98884.28;5011957;27;96567;-48
2021/10/21 06:31:53;;;;;;;5.73;1.10;;;14.80;99.90;;;14.43;63.44;98924.28;5009493;27;113942;-50
2021/10/21 06:34:19;;;;;;;3.70;0.70;;;14.80;99.90;;;14.47;63.64;98931.09;5016523;27;98943;-50
2021/10/21 06:36:46;;;;;;;6.73;1.03;;;14.80;99.90;;;14.11;63.55;98974.53;5017939;27;97096;-45
2021/10/21 06:39:12;;;;;;;5.17;0.60;;;14.50;99.90;;;14.04;64.07;98998.97;5016550;27;97323;-48
2021/10/21 06:41:38;;;;;;;3.93;1.03;;;14.50;99.90;;;14.28;64.11;99010.34;5001936;27;97983;-51
2021/10/21 06:44:07;;;;;;;3.00;0.90;;;14.60;99.90;;;14.16;65.18;99028.03;4986926;27;97957;-50
2021/10/21 06:46:34;;;;;;;3.07;0.93;;;14.50;99.90;;;13.58;65.30;99060.69;5007677;27;96796;-51
2021/10/21 06:49:00;;;;;;;6.20;1.13;;;14.10;99.90;;;13.77;67.06;99090.19;4997696;27;98893;-50
2021/10/21 06:51:26;;;;;;;7.13;1.30;;;14.10;99.90;;;13.72;66.49;99121.47;4985013;27;99692;-49
2021/10/21 06:53:53;;;;;;;0.73;0.30;;;14.10;99.90;;;13.47;67.31;99135.66;4983818;27;99539;-49
2021/10/21 06:56:19;;;;;;;6.17;1.03;;;13.90;99.90;;;13.37;67.90;99172.53;5002115;27;100654;-48
2021/10/21 06:58:45;;;;;;;3.73;1.20;;;13.80;99.90;;;13.36;68.99;99192.00;4997876;27;98415;-49
2021/10/21 07:01:12;;;;;;;9.17;2.30;;;13.70;99.90;;;13.57;67.78;99204.69;5001858;27;101403;-52
2021/10/21 07:03:37;;;;;;;4.40;1.30;;;13.90;99.90;;;13.56;67.56;99243.56;4970604;27;97064;-51
2021/10/21 07:06:03;;;;;;;3.13;0.93;;;13.90;99.90;;;13.23;67.78;99261.81;5006208;27;98661;-50
2021/10/21 07:08:29;;;;;;;3.90;1.10;;;13.70;99.90;;;13.34;68.31;99277.81;4987023;27;105084;-49
2021/10/21 07:10:57;;;;;;;3.90;0.77;;;13.70;99.90;;;13.08;67.63;99333.34;4985095;27;99880;-48
2021/10/21 07:13:24;;;;;;;4.47;1.37;;;13.50;99.90;;;13.19;67.22;99347.72;5006021;27;97947;-53
2021/10/21 07:15:50;;;;;;;4.03;1.03;;;13.50;99.90;;;13.19;66.68;99390.06;4984650;27;99724;-50
2021/10/21 07:18:16;;;;;;;4.93;1.07;;;13.60;99.90;;;13.15;66.07;99384.06;4987669;27;99782;-51
2021/10/21 07:20:42;;;;;;;5.17;1.33;;;13.60;99.90;;;13.23;66.50;99404.78;4999413;27;98790;-48
2021/10/21 07:23:08;;;;;;;6.10;1.40;;;13.60;99.90;;;13.18;65.79;99430.69;4983612;27;98797;-51
2021/10/21 07:25:35;;;;;;;5.03;1.20;;;13.50;99.90;;;13.29;65.34;99430.84;5004456;27;98411;-50
2021/10/21 07:28:02;;;;;;;6.77;1.63;;;13.60;99.90;;;13.32;65.87;99450.06;4987191;27;104348;-52
2021/10/21 07:30:29;;;;;;;8.13;1.67;;;13.60;99.90;;;13.42;64.17;99470.63;4987970;27;98491;-49
2021/10/21 07:32:58;;;;;;;4.80;1.33;;;13.80;99.90;;;13.58;64.85;99476.59;5003080;27;98994;-51
2021/10/21 07:35:25;;;;;;;5.97;1.47;;;13.90;99.90;;;13.67;64.22;99497.19;4991507;27;98599;-48
2021/10/21 07:37:51;;;;;;;3.63;1.07;;;13.90;99.90;;;13.43;61.01;99515.53;4981120;27;99787;-51
2021/10/21 07:40:17;;;;;;;3.77;0.70;;;13.80;99.90;;;13.36;59.57;99523.06;4973478;27;98875;-51
2021/10/21 07:42:43;;;;;;;4.07;0.73;;;13.80;99.90;;;13.44;60.83;99548.19;4997745;27;99697;-50
2021/10/21 07:45:10;;;;;;;5.23;1.20;;;13.80;99.90;;;13.54;61.33;99573.13;4988303;27;98450;-45
2021/10/21 07:47:38;;;;;;;4.13;1.10;;;13.80;99.90;;;13.64;61.26;99593.66;4986763;27;99953;-54
2021/10/21 07:50:07;;;;;;;7.40;1.53;;;13.90;99.90;;;13.69;62.69;99601.28;4985087;27;104463;-48
2021/10/21 07:52:37;;;;;;;4.13;1.13;;;13.90;99.90;;;13.97;59.72;99619.72;5004100;27;99117;-51
2021/10/21 07:55:06;;;;;;;6.97;1.50;;;14.20;99.90;;;13.81;61.79;99621.69;4982277;27;99092;-47
2021/10/21 07:57:31;;;;;;;5.57;1.30;;;14.10;99.90;;;13.97;60.64;99648.91;4969917;27;98668;-49
2021/10/21 07:59:57;;;;;;;5.67;1.83;;;14.20;99.90;;;14.28;60.70;99646.88;4991115;27;98501;-51
2021/10/21 08:02:23;;;;;;;8.03;1.77;;;14.50;99.90;;;14.29;60.53;99669.78;5004020;27;98218;-52
2021/10/21 08:04:49;;;;;;;4.60;1.53;;;14.50;99.90;;;14.91;61.35;99688.63;4984610;27;97669;-52
2021/10/21 08:07:15;;;;;;;4.87;1.63;;;15.00;99.90;;;14.95;59.27;99698.06;4992307;27;99418;-50
2021/10/21 08:09:41;;;;;;;8.00;2.03;;;15.10;99.90;;;14.98;60.11;99697.84;4981005;27;109323;-48
2021/10/21 08:12:08;;;;;;;4.43;1.27;;;15.10;99.90;;;15.28;59.41;99715.28;4986502;27;97681;-50
2021/10/21 08:14:34;;;;;;;7.60;1.80;;;15.40;99.90;;;15.50;58.52;99739.41;4977985;27;98554;-46
2021/10/21 08:17:00;;;;;;;7.90;1.97;;;15.60;99.90;;;15.71;58.19;99748.53;4981411;27;98742;-53
2021/10/21 08:19:26;;;;;;;7.37;1.67;;;15.80;99.90;;;15.70;56.78;99762.78;4983606;27;97733;-48
2021/10/21 08:21:53;;;;;;;11.37;2.27;;;15.90;99.90;;;15.73;56.25;99770.53;4980720;27;103404;-52
2021/10/21 08:24:21;;;;;;;8.97;2.07;;;15.90;99.90;;;15.78;58.17;99772.88;4985909;27;97766;-51
2021/10/21 08:26:48;;;;;;;7.70;1.97;;;15.90;99.90;;;15.94;55.37;99759.34;4985616;27;100320;-50
2021/10/21 08:29:15;;;;;;;5.73;1.80;;;16.10;99.90;;;15.75;59.32;99787.22;5007577;27;96871;-49
2021/10/21 08:31:40;;;;;;;10.63;1.73;;;15.80;99.90;;;15.96;58.58;99799.97;5001763;27;97430;-49
2021/10/21 08:34:07;;;;;;;5.10;1.50;;;16.00;99.90;;;16.21;57.71;99804.38;5006060;27;98774;-49
2021/10/21 08:36:32;;;;;;;7.47;2.10;;;16.20;99.90;;;16.01;57.25;99824.41;4980067;27;98945;-48
2021/10/21 08:38:59;;;;;;;8.30;2.03;;;16.20;99.90;;;16.15;57.64;99805.66;4981539;27;99626;-51
2021/10/21 08:41:28;;;;;;;5.60;2.00;;;16.30;99.90;;;16.38;54.97;99805.81;4988610;27;99137;-49
2021/10/21 08:43:54;;;;;;;7.30;1.83;;;16.50;99.90;;;15.68;56.07;99815.22;5002504;27;98882;-48
2021/10/21 08:46:25;;;;;;;7.87;1.93;;;16.00;99.90;;;15.59;56.86;99821.16;4987853;27;98947;-50
2021/10/21 08:48:57;;;;;;;4.67;1.90;;;15.80;99.90;;;15.67;57.15;99826.81;4982440;27;98463;-49
2021/10/21 08:51:24;;;;;;;5.43;2.00;;;15.90;99.90;;;15.99;57.36;99831.66;4984733;27;97327;-50
2021/10/21 08:53:50;;;;;;;8.07;2.43;;;16.10;99.90;;;15.93;54.71;99848.06;4999806;27;97564;-48
2021/10/21 08:56:33;;;;;;;7.17;1.97;;;16.20;99.90;;;16.11;56.26;99861.88;4992449;27;99748;-51
2021/10/21 08:59:00;;;;;;;5.17;1.77;;;16.20;99.90;;;15.52;55.19;99857.06;4986826;27;99323;-50
2021/10/21 09:01:36;;;;;;;3.77;1.77;;;15.90;99.90;;;15.94;56.48;99881.69;5005799;27;98588;-49
2021/10/21 09:04:25;;;;;;;8.33;1.83;;;16.10;99.90;;;16.19;55.85;99884.28;4980508;27;97872;-49
2021/10/21 09:09:28;;;;;;;4.80;2.07;;;16.20;99.90;;;16.23;56.49;99884.94;5006944;27;102940;-47
2021/10/21 09:12:09;;;;;;;7.37;2.07;;;16.40;99.90;;;16.52;54.49;99896.16;5000168;27;98710;-47
2021/10/21 09:14:40;;;;;;;7.67;2.20;;;16.60;99.90;;;16.59;54.72;99900.06;4991351;27;98968;-52
2021/10/21 09:17:09;;;;;;;7.33;1.93;;;16.70;99.90;;;16.26;55.58;99893.56;4983384;27;103312;-51
2021/10/21 09:19:36;;;;;;;4.87;1.70;;;16.40;99.90;;;16.34;55.11;99893.84;4987394;27;98666;-50
2021/10/21 09:22:05;;;;;;;7.33;2.40;;;16.50;99.90;;;16.26;52.82;99909.53;4984597;27;97778;-50
2021/10/21 09:24:41;;;;;;;6.20;1.83;;;16.50;99.90;;;16.33;52.70;99918.75;4989425;27;97096;-49
2021/10/21 09:27:13;;;;;;;5.57;1.80;;;16.50;99.90;;;16.36;52.27;99913.25;4988084;27;102856;-49
2021/10/21 09:29:50;;;;;;;10.10;2.33;;;16.50;99.90;;;16.47;53.96;99930.22;4999689;27;98202;-51
2021/10/21 09:32:31;;;;;;;4.40;1.63;;;16.50;99.90;;;16.41;51.81;99944.00;4991533;27;97460;-48
2021/10/21 09:35:07;;;;;;;7.47;2.50;;;16.50;99.90;;;16.15;51.71;99949.31;4979382;27;101362;-49
2021/10/21 09:37:42;;;;;;;3.47;1.47;;;16.40;99.90;;;16.16;52.61;99956.34;4979942;27;97751;-48
2021/10/21 09:40:38;;;;;;;5.77;1.90;;;16.40;99.90;;;16.45;53.28;99964.09;4978893;27;104675;-53
2021/10/21 09:43:06;;;;;;;5.97;1.40;;;16.60;99.90;;;16.47;53.03;99962.16;4981693;27;99071;-49
2021/10/21 09:45:39;;;;;;;4.20;1.40;;;16.60;99.90;;;16.49;53.41;99973.56;4982933;27;98218;-48
2021/10/21 09:48:07;;;;;;;4.30;1.20;;;16.60;99.90;;;16.40;49.90;99974.22;4980052;27;103002;-52
2021/10/21 09:50:41;;;;;;;6.03;1.53;;;16.60;99.70;;;16.36;52.25;99957.63;4986316;27;98755;-49
2021/10/21 09:53:22;;;;;;;5.50;1.47;;;16.50;99.90;;;16.36;50.47;99977.09;4980547;27;97913;-49
2021/10/21 09:56:01;;;;;;;8.57;1.97;;;16.60;99.90;;;16.08;49.26;99976.47;4980657;27;98188;-50
2021/10/21 09:58:29;;;;;;;3.97;1.17;;;16.30;99.40;;;15.89;51.08;99975.06;4985579;27;98959;-49
2021/10/21 10:01:16;;;;;;;5.87;1.57;;;16.10;99.80;;;16.25;52.02;99971.69;4980087;27;98176;-50
2021/10/21 10:03:46;;;;;;;4.73;1.30;;;16.40;99.90;;;15.60;50.66;99985.00;4980388;27;98813;-46
2021/10/21 10:06:16;;;;;;;7.60;2.10;;;15.90;99.50;;;15.90;52.37;99986.53;4974209;28;99112;-50
2021/10/21 10:08:45;;;;;;;3.93;1.40;;;16.10;99.90;;;15.92;53.87;99979.34;4983248;27;102632;-51
2021/10/21 10:11:13;;;;;;;8.73;1.90;;;16.10;99.90;;;16.15;53.29;99989.22;4988089;27;96956;-54
2021/10/21 10:13:46;;;;;;;7.00;1.97;;;16.30;99.90;;;16.27;52.78;99988.38;4981641;27;99120;-51
2021/10/21 10:16:14;;;;;;;4.43;1.50;;;16.40;99.90;;;16.04;51.91;99975.81;4988660;27;98711;-49
2021/10/21 10:18:45;;;;;;;10.50;1.87;;;16.30;99.90;;;15.95;50.32;99984.44;4981560;27;99197;-47
2021/10/21 10:21:25;;;;;;;4.70;1.90;;;16.20;99.90;;;16.02;51.16;99985.72;4991361;27;98611;-45